sensor_id;sensor_type;location;lat;lon;timestamp;temperature;humidity
40077;DHT22;25777;47.824;18.982;2023-09-30T00:00:27;11.90;99.90
40077;DHT22;25777;47.824;18.982;2023-09-30T00:02:55;11.80;99.90
40077;DHT22;25777;47.824;18.982;2023-09-30T00:05:31;11.70;99.90
40077;DHT22;25777;47.824;18.982;2023-09-30T00:08:06;11.70;99.90
40077;DHT22;25777;47.824;18.982;2023-09-30T00:10:33;11.70;99.90
40077;DHT22;25777;47.824;18.982;2023-09-30T00:13:01;11.70;99.90
40077;DHT22;25777;47.824;18.982;2023-09-30T00:15:27;11.70;99.90
40077;DHT22;25777;47.824;18.982;2023-09-30T00:17:54;11.70;99.90
40077;DHT22;25777;47.824;18.982;2023-09-30T00:20:31;11.70;99.90
40077;DHT22;25777;47.824;18.982;2023-09-30T00:22:58;11.60;99.90
40077;DHT22;25777;47.824;18.982;2023-09-30T00:25:29;11.70;99.90
40077;DHT22;25777;47.824;18.982;2023-09-30T00:27:55;11.70;99.90
40077;DHT22;25777;47.824;18.982;2023-09-30T00:30:23;11.70;99.90
40077;DHT22;25777;47.824;18.982;2023-09-30T00:32:54;11.60;99.90
40077;DHT22;25777;47.824;18.982;2023-09-30T00:35:21;11.60;99.90
40077;DHT22;25777;47.824;18.982;2023-09-30T00:37:53;11.50;99.90
40077;DHT22;25777;47.824;18.982;2023-09-30T00:40:19;11.60;99.90
40077;DHT22;25777;47.824;18.982;2023-09-30T00:42:51;11.60;99.90
40077;DHT22;25777;47.824;18.982;2023-09-30T00:45:29;11.50;99.90
40077;DHT22;25777;47.824;18.982;2023-09-30T00:47:55;11.50;99.90
40077;DHT22;25777;47.824;18.982;2023-09-30T00:50:26;11.50;99.90
40077;DHT22;25777;47.824;18.982;2023-09-30T00:52:55;11.40;99.90
40077;DHT22;25777;47.824;18.982;2023-09-30T00:55:44;11.30;99.90
40077;DHT22;25777;47.824;18.982;2023-09-30T00:58:13;11.30;99.90
40077;DHT22;25777;47.824;18.982;2023-09-30T01:00:45;11.10;99.90
40077;DHT22;25777;47.824;18.982;2023-09-30T01:03:14;11.10;99.90
40077;DHT22;25777;47.824;18.982;2023-09-30T01:05:54;11.30;99.90
40077;DHT22;25777;47.824;18.982;2023-09-30T01:08:39;11.40;99.90
40077;DHT22;25777;47.824;18.982;2023-09-30T01:11:06;11.40;99.90
40077;DHT22;25777;47.824;18.982;2023-09-30T01:13:36;11.30;99.90
40077;DHT22;25777;47.824;18.982;2023-09-30T01:16:09;11.40;99.90
40077;DHT22;25777;47.824;18.982;2023-09-30T01:18:35;11.40;99.90
40077;DHT22;25777;47.824;18.982;2023-09-30T01:21:07;11.40;99.90
40077;DHT22;25777;47.824;18.982;2023-09-30T01:23:35;11.30;99.90
40077;DHT22;25777;47.824;18.982;2023-09-30T01:26:12;11.20;99.90
40077;DHT22;25777;47.824;18.982;2023-09-30T01:28:42;11.20;99.90
40077;DHT22;25777;47.824;18.982;2023-09-30T01:31:17;11.20;99.90
40077;DHT22;25777;47.824;18.982;2023-09-30T01:34:16;11.30;99.90
40077;DHT22;25777;47.824;18.982;2023-09-30T01:36:48;11.30;99.90
40077;DHT22;25777;47.824;18.982;2023-09-30T01:39:25;11.30;99.90
40077;DHT22;25777;47.824;18.982;2023-09-30T01:41:51;11.30;99.90
40077;DHT22;25777;47.824;18.982;2023-09-30T01:44:18;11.20;99.90
40077;DHT22;25777;47.824;18.982;2023-09-30T01:46:45;11.10;99.90
40077;DHT22;25777;47.824;18.982;2023-09-30T01:49:24;10.90;99.90
40077;DHT22;25777;47.824;18.982;2023-09-30T01:52:00;11.00;99.90
40077;DHT22;25777;47.824;18.982;2023-09-30T01:54:35;11.10;99.90
40077;DHT22;25777;47.824;18.982;2023-09-30T01:57:00;11.10;99.90
40077;DHT22;25777;47.824;18.982;2023-09-30T01:59:31;11.00;99.90
40077;DHT22;25777;47.824;18.982;2023-09-30T02:02:06;11.00;99.90
40077;DHT22;25777;47.824;18.982;2023-09-30T02:04:34;11.10;99.90
40077;DHT22;25777;47.824;18.982;2023-09-30T02:07:05;11.10;99.90
40077;DHT22;25777;47.824;18.982;2023-09-30T02:09:35;11.10;99.90
40077;DHT22;25777;47.824;18.982;2023-09-30T02:12:04;11.10;99.90
40077;DHT22;25777;47.824;18.982;2023-09-30T02:14:30;11.10;99.90
40077;DHT22;25777;47.824;18.982;2023-09-30T02:16:56;11.10;99.90
40077;DHT22;25777;47.824;18.982;2023-09-30T02:19:29;11.10;99.90
40077;DHT22;25777;47.824;18.982;2023-09-30T02:21:57;11.20;99.90
40077;DHT22;25777;47.824;18.982;2023-09-30T02:24:23;11.10;99.90
40077;DHT22;25777;47.824;18.982;2023-09-30T02:26:49;11.00;99.90
40077;DHT22;25777;47.824;18.982;2023-09-30T02:29:15;11.00;99.90
40077;DHT22;25777;47.824;18.982;2023-09-30T02:31:41;11.00;99.90
40077;DHT22;25777;47.824;18.982;2023-09-30T02:34:14;11.00;99.90
40077;DHT22;25777;47.824;18.982;2023-09-30T02:36:41;11.00;99.90
40077;DHT22;25777;47.824;18.982;2023-09-30T02:39:12;10.90;99.90
40077;DHT22;25777;47.824;18.982;2023-09-30T02:41:47;10.90;99.90
40077;DHT22;25777;47.824;18.982;2023-09-30T02:44:16;10.90;99.90
40077;DHT22;25777;47.824;18.982;2023-09-30T02:46:41;11.00;99.90
40077;DHT22;25777;47.824;18.982;2023-09-30T02:49:11;11.00;99.90
40077;DHT22;25777;47.824;18.982;2023-09-30T02:51:37;11.00;99.90
40077;DHT22;25777;47.824;18.982;2023-09-30T02:54:07;11.10;99.90
40077;DHT22;25777;47.824;18.982;2023-09-30T02:56:33;11.10;99.90
40077;DHT22;25777;47.824;18.982;2023-09-30T02:59:07;10.90;99.90
40077;DHT22;25777;47.824;18.982;2023-09-30T03:01:44;11.00;99.90
40077;DHT22;25777;47.824;18.982;2023-09-30T03:04:10;11.00;99.90
40077;DHT22;25777;47.824;18.982;2023-09-30T03:06:39;11.00;99.90
40077;DHT22;25777;47.824;18.982;2023-09-30T03:09:06;11.00;99.90
40077;DHT22;25777;47.824;18.982;2023-09-30T03:11:32;11.10;99.90
40077;DHT22;25777;47.824;18.982;2023-09-30T03:14:00;11.10;99.90
40077;DHT22;25777;47.824;18.982;2023-09-30T03:16:25;11.10;99.90
40077;DHT22;25777;47.824;18.982;2023-09-30T03:18:51;10.90;99.90
40077;DHT22;25777;47.824;18.982;2023-09-30T03:21:34;10.80;99.90
40077;DHT22;25777;47.824;18.982;2023-09-30T03:24:03;10.70;99.90
40077;DHT22;25777;47.824;18.982;2023-09-30T03:26:30;10.60;99.90
40077;DHT22;25777;47.824;18.982;2023-09-30T03:28:57;10.70;99.90
40077;DHT22;25777;47.824;18.982;2023-09-30T03:31:28;10.80;99.90
40077;DHT22;25777;47.824;18.982;2023-09-30T03:33:55;10.80;99.90
40077;DHT22;25777;47.824;18.982;2023-09-30T03:36:24;10.80;99.90
40077;DHT22;25777;47.824;18.982;2023-09-30T03:38:53;10.70;99.90
40077;DHT22;25777;47.824;18.982;2023-09-30T03:41:22;10.70;99.90
40077;DHT22;25777;47.824;18.982;2023-09-30T03:43:48;10.70;99.90
40077;DHT22;25777;47.824;18.982;2023-09-30T03:46:15;10.70;99.90
40077;DHT22;25777;47.824;18.982;2023-09-30T03:48:49;10.50;99.90
40077;DHT22;25777;47.824;18.982;2023-09-30T03:51:15;10.50;99.90
40077;DHT22;25777;47.824;18.982;2023-09-30T03:53:44;10.50;99.90
40077;DHT22;25777;47.824;18.982;2023-09-30T03:56:11;10.60;99.90
40077;DHT22;25777;47.824;18.982;2023-09-30T03:58:39;10.60;99.90
40077;DHT22;25777;47.824;18.982;2023-09-30T04:01:08;10.60;99.90
40077;DHT22;25777;47.824;18.982;2023-09-30T04:03:38;10.70;99.90
40077;DHT22;25777;47.824;18.982;2023-09-30T04:06:10;10.60;99.90
40077;DHT22;25777;47.824;18.982;2023-09-30T04:08:42;10.50;99.90
40077;DHT22;25777;47.824;18.982;2023-09-30T04:11:11;10.50;99.90
40077;DHT22;25777;47.824;18.982;2023-09-30T04:13:44;10.50;99.90
40077;DHT22;25777;47.824;18.982;2023-09-30T04:16:16;10.70;99.90
40077;DHT22;25777;47.824;18.982;2023-09-30T04:18:49;10.70;99.90
40077;DHT22;25777;47.824;18.982;2023-09-30T04:21:15;10.70;99.90
40077;DHT22;25777;47.824;18.982;2023-09-30T04:23:41;10.60;99.90
40077;DHT22;25777;47.824;18.982;2023-09-30T04:26:09;10.50;99.90
40077;DHT22;25777;47.824;18.982;2023-09-30T04:28:43;10.50;99.90
40077;DHT22;25777;47.824;18.982;2023-09-30T04:31:11;10.50;99.90
40077;DHT22;25777;47.824;18.982;2023-09-30T04:33:45;10.60;99.90
40077;DHT22;25777;47.824;18.982;2023-09-30T04:36:12;10.60;99.90
40077;DHT22;25777;47.824;18.982;2023-09-30T04:38:38;10.60;99.90
40077;DHT22;25777;47.824;18.982;2023-09-30T04:41:04;10.60;99.90
40077;DHT22;25777;47.824;18.982;2023-09-30T04:43:33;10.50;99.90
40077;DHT22;25777;47.824;18.982;2023-09-30T04:46:00;10.60;99.90
40077;DHT22;25777;47.824;18.982;2023-09-30T04:48:26;10.60;99.90
40077;DHT22;25777;47.824;18.982;2023-09-30T04:50:52;10.60;99.90
40077;DHT22;25777;47.824;18.982;2023-09-30T04:53:18;10.60;99.90
40077;DHT22;25777;47.824;18.982;2023-09-30T04:55:44;10.50;99.90
40077;DHT22;25777;47.824;18.982;2023-09-30T04:58:11;10.60;99.90
40077;DHT22;25777;47.824;18.982;2023-09-30T05:00:38;10.70;99.90
40077;DHT22;25777;47.824;18.982;2023-09-30T05:03:05;10.70;99.90
40077;DHT22;25777;47.824;18.982;2023-09-30T05:05:31;10.70;99.90
40077;DHT22;25777;47.824;18.982;2023-09-30T05:07:57;10.70;99.90
40077;DHT22;25777;47.824;18.982;2023-09-30T05:10:24;10.70;99.90
40077;DHT22;25777;47.824;18.982;2023-09-30T05:12:50;10.80;99.90
40077;DHT22;25777;47.824;18.982;2023-09-30T05:15:20;10.80;99.90
40077;DHT22;25777;47.824;18.982;2023-09-30T05:17:47;10.90;99.90
40077;DHT22;25777;47.824;18.982;2023-09-30T05:20:15;11.00;99.90
40077;DHT22;25777;47.824;18.982;2023-09-30T05:22:45;11.00;99.90
40077;DHT22;25777;47.824;18.982;2023-09-30T05:25:15;11.10;99.90
40077;DHT22;25777;47.824;18.982;2023-09-30T05:27:45;11.10;99.90
40077;DHT22;25777;47.824;18.982;2023-09-30T05:30:13;11.20;99.90
40077;DHT22;25777;47.824;18.982;2023-09-30T05:32:41;11.40;99.90
40077;DHT22;25777;47.824;18.982;2023-09-30T05:35:07;11.50;99.90
40077;DHT22;25777;47.824;18.982;2023-09-30T05:37:42;11.70;99.90
40077;DHT22;25777;47.824;18.982;2023-09-30T05:40:08;12.00;99.90
40077;DHT22;25777;47.824;18.982;2023-09-30T05:42:45;12.10;99.90
40077;DHT22;25777;47.824;18.982;2023-09-30T05:45:11;12.00;99.90
40077;DHT22;25777;47.824;18.982;2023-09-30T05:47:41;12.00;99.90
40077;DHT22;25777;47.824;18.982;2023-09-30T05:50:08;12.00;99.90
40077;DHT22;25777;47.824;18.982;2023-09-30T05:52:43;12.10;99.90
40077;DHT22;25777;47.824;18.982;2023-09-30T05:55:10;12.10;99.90
40077;DHT22;25777;47.824;18.982;2023-09-30T05:57:36;12.20;99.90
40077;DHT22;25777;47.824;18.982;2023-09-30T06:00:03;12.20;99.90
40077;DHT22;25777;47.824;18.982;2023-09-30T06:02:49;12.30;99.90
40077;DHT22;25777;47.824;18.982;2023-09-30T06:05:18;12.40;99.90
40077;DHT22;25777;47.824;18.982;2023-09-30T06:07:48;12.50;99.90
40077;DHT22;25777;47.824;18.982;2023-09-30T06:10:14;12.60;99.90
40077;DHT22;25777;47.824;18.982;2023-09-30T06:12:47;12.70;99.90
40077;DHT22;25777;47.824;18.982;2023-09-30T06:15:16;12.70;99.90
40077;DHT22;25777;47.824;18.982;2023-09-30T06:17:50;12.80;99.90
40077;DHT22;25777;47.824;18.982;2023-09-30T06:20:20;12.90;99.90
40077;DHT22;25777;47.824;18.982;2023-09-30T06:22:48;13.10;99.90
40077;DHT22;25777;47.824;18.982;2023-09-30T06:25:17;13.20;99.90
40077;DHT22;25777;47.824;18.982;2023-09-30T06:27:47;13.30;99.90
40077;DHT22;25777;47.824;18.982;2023-09-30T06:30:17;13.30;99.90
40077;DHT22;25777;47.824;18.982;2023-09-30T06:32:44;13.30;99.90
40077;DHT22;25777;47.824;18.982;2023-09-30T06:35:11;13.40;99.90
40077;DHT22;25777;47.824;18.982;2023-09-30T06:37:38;13.50;99.90
40077;DHT22;25777;47.824;18.982;2023-09-30T06:40:09;13.50;99.90
40077;DHT22;25777;47.824;18.982;2023-09-30T06:42:37;13.60;99.90
40077;DHT22;25777;47.824;18.982;2023-09-30T06:45:03;13.70;99.90
40077;DHT22;25777;47.824;18.982;2023-09-30T06:47:35;13.70;99.90
40077;DHT22;25777;47.824;18.982;2023-09-30T06:50:03;13.80;99.90
40077;DHT22;25777;47.824;18.982;2023-09-30T06:52:34;13.80;99.90
40077;DHT22;25777;47.824;18.982;2023-09-30T06:55:04;13.90;99.90
40077;DHT22;25777;47.824;18.982;2023-09-30T06:57:35;14.00;99.90
40077;DHT22;25777;47.824;18.982;2023-09-30T07:00:01;14.00;99.90
40077;DHT22;25777;47.824;18.982;2023-09-30T07:02:30;14.10;99.90
40077;DHT22;25777;47.824;18.982;2023-09-30T07:04:55;14.20;99.90
40077;DHT22;25777;47.824;18.982;2023-09-30T07:07:22;14.30;99.90
40077;DHT22;25777;47.824;18.982;2023-09-30T07:09:48;14.30;99.90
40077;DHT22;25777;47.824;18.982;2023-09-30T07:12:13;14.40;99.90
40077;DHT22;25777;47.824;18.982;2023-09-30T07:14:39;14.50;99.90
40077;DHT22;25777;47.824;18.982;2023-09-30T07:17:05;14.50;99.90
40077;DHT22;25777;47.824;18.982;2023-09-30T07:19:31;14.60;99.90
40077;DHT22;25777;47.824;18.982;2023-09-30T07:21:57;14.70;99.90
40077;DHT22;25777;47.824;18.982;2023-09-30T07:24:23;14.80;99.90
40077;DHT22;25777;47.824;18.982;2023-09-30T07:26:49;14.90;99.90
40077;DHT22;25777;47.824;18.982;2023-09-30T07:29:15;15.00;99.90
40077;DHT22;25777;47.824;18.982;2023-09-30T07:31:40;15.00;99.90
40077;DHT22;25777;47.824;18.982;2023-09-30T07:34:07;15.10;99.90
40077;DHT22;25777;47.824;18.982;2023-09-30T07:36:33;15.20;99.90
40077;DHT22;25777;47.824;18.982;2023-09-30T07:38:59;15.30;99.90
40077;DHT22;25777;47.824;18.982;2023-09-30T07:41:27;15.40;99.90
40077;DHT22;25777;47.824;18.982;2023-09-30T07:43:53;15.50;99.90
40077;DHT22;25777;47.824;18.982;2023-09-30T07:46:18;15.50;99.90
40077;DHT22;25777;47.824;18.982;2023-09-30T07:48:45;15.60;99.90
40077;DHT22;25777;47.824;18.982;2023-09-30T07:51:11;15.70;99.90
40077;DHT22;25777;47.824;18.982;2023-09-30T07:53:39;15.80;99.90
40077;DHT22;25777;47.824;18.982;2023-09-30T07:56:06;15.90;99.90
40077;DHT22;25777;47.824;18.982;2023-09-30T07:58:32;16.10;99.90
40077;DHT22;25777;47.824;18.982;2023-09-30T08:00:58;16.20;99.90
40077;DHT22;25777;47.824;18.982;2023-09-30T08:03:26;16.40;99.90
40077;DHT22;25777;47.824;18.982;2023-09-30T08:05:52;16.50;99.90
40077;DHT22;25777;47.824;18.982;2023-09-30T08:08:18;16.70;99.90
40077;DHT22;25777;47.824;18.982;2023-09-30T08:10:44;16.80;99.90
40077;DHT22;25777;47.824;18.982;2023-09-30T08:13:10;16.90;99.90
40077;DHT22;25777;47.824;18.982;2023-09-30T08:15:36;17.00;99.90
40077;DHT22;25777;47.824;18.982;2023-09-30T08:18:03;17.00;99.90
40077;DHT22;25777;47.824;18.982;2023-09-30T08:20:31;17.00;99.90
40077;DHT22;25777;47.824;18.982;2023-09-30T08:22:57;17.10;99.90
40077;DHT22;25777;47.824;18.982;2023-09-30T08:25:23;17.20;99.90
40077;DHT22;25777;47.824;18.982;2023-09-30T08:27:49;17.20;99.90
40077;DHT22;25777;47.824;18.982;2023-09-30T08:30:15;17.30;99.90
40077;DHT22;25777;47.824;18.982;2023-09-30T08:32:42;17.30;99.90
40077;DHT22;25777;47.824;18.982;2023-09-30T08:35:08;17.40;99.90
40077;DHT22;25777;47.824;18.982;2023-09-30T08:37:35;17.40;99.90
40077;DHT22;25777;47.824;18.982;2023-09-30T08:40:01;17.50;99.90
40077;DHT22;25777;47.824;18.982;2023-09-30T08:42:27;17.50;99.90
40077;DHT22;25777;47.824;18.982;2023-09-30T08:44:58;17.50;99.90
40077;DHT22;25777;47.824;18.982;2023-09-30T08:47:28;17.50;99.90
40077;DHT22;25777;47.824;18.982;2023-09-30T08:50:00;17.60;99.90
40077;DHT22;25777;47.824;18.982;2023-09-30T08:52:35;17.70;99.90
40077;DHT22;25777;47.824;18.982;2023-09-30T08:55:01;17.90;99.90
40077;DHT22;25777;47.824;18.982;2023-09-30T08:57:28;18.00;99.90
40077;DHT22;25777;47.824;18.982;2023-09-30T08:59:55;18.10;99.90
40077;DHT22;25777;47.824;18.982;2023-09-30T09:02:23;18.20;99.90
40077;DHT22;25777;47.824;18.982;2023-09-30T09:04:49;18.20;99.90
40077;DHT22;25777;47.824;18.982;2023-09-30T09:07:35;18.20;99.90
40077;DHT22;25777;47.824;18.982;2023-09-30T09:12:31;18.40;99.90
40077;DHT22;25777;47.824;18.982;2023-09-30T09:14:56;18.40;99.90
40077;DHT22;25777;47.824;18.982;2023-09-30T09:17:22;18.40;99.90
40077;DHT22;25777;47.824;18.982;2023-09-30T09:19:59;18.40;99.90
40077;DHT22;25777;47.824;18.982;2023-09-30T09:22:38;18.50;99.90
40077;DHT22;25777;47.824;18.982;2023-09-30T09:25:05;18.50;99.90
40077;DHT22;25777;47.824;18.982;2023-09-30T09:27:33;18.40;99.90
40077;DHT22;25777;47.824;18.982;2023-09-30T09:30:18;18.50;99.90
40077;DHT22;25777;47.824;18.982;2023-09-30T09:33:01;18.60;99.90
40077;DHT22;25777;47.824;18.982;2023-09-30T09:35:29;18.60;99.90
40077;DHT22;25777;47.824;18.982;2023-09-30T09:38:06;18.60;99.90
40077;DHT22;25777;47.824;18.982;2023-09-30T09:40:33;18.60;99.90
40077;DHT22;25777;47.824;18.982;2023-09-30T09:43:01;18.70;99.90
40077;DHT22;25777;47.824;18.982;2023-09-30T09:45:34;18.80;99.90
40077;DHT22;25777;47.824;18.982;2023-09-30T09:48:01;18.90;99.90
40077;DHT22;25777;47.824;18.982;2023-09-30T09:50:27;18.80;99.90
40077;DHT22;25777;47.824;18.982;2023-09-30T09:52:54;18.70;99.90
40077;DHT22;25777;47.824;18.982;2023-09-30T09:55:24;18.70;99.90
40077;DHT22;25777;47.824;18.982;2023-09-30T09:57:50;18.70;99.90
40077;DHT22;25777;47.824;18.982;2023-09-30T10:00:20;18.80;99.90
40077;DHT22;25777;47.824;18.982;2023-09-30T10:02:47;18.80;99.90
40077;DHT22;25777;47.824;18.982;2023-09-30T10:05:14;18.70;99.90
40077;DHT22;25777;47.824;18.982;2023-09-30T10:10:28;18.70;99.90
40077;DHT22;25777;47.824;18.982;2023-09-30T10:12:54;18.70;99.90
40077;DHT22;25777;47.824;18.982;2023-09-30T10:18:03;18.70;99.90
40077;DHT22;25777;47.824;18.982;2023-09-30T10:20:31;18.60;99.90
40077;DHT22;25777;47.824;18.982;2023-09-30T10:23:22;18.60;99.90
40077;DHT22;25777;47.824;18.982;2023-09-30T10:25:53;18.60;99.90
40077;DHT22;25777;47.824;18.982;2023-09-30T10:28:35;18.60;99.90
40077;DHT22;25777;47.824;18.982;2023-09-30T10:31:31;18.60;99.90
40077;DHT22;25777;47.824;18.982;2023-09-30T10:36:32;18.60;99.90
40077;DHT22;25777;47.824;18.982;2023-09-30T10:38:59;18.60;99.90
40077;DHT22;25777;47.824;18.982;2023-09-30T10:46:54;18.60;99.90
40077;DHT22;25777;47.824;18.982;2023-09-30T10:51:53;18.70;99.90
40077;DHT22;25777;47.824;18.982;2023-09-30T10:54:27;18.80;99.90
40077;DHT22;25777;47.824;18.982;2023-09-30T10:56:55;18.80;99.90
40077;DHT22;25777;47.824;18.982;2023-09-30T10:59:24;18.80;99.90
40077;DHT22;25777;47.824;18.982;2023-09-30T11:01:51;18.80;99.90
40077;DHT22;25777;47.824;18.982;2023-09-30T11:04:17;18.80;99.90
40077;DHT22;25777;47.824;18.982;2023-09-30T11:06:44;18.80;99.90
40077;DHT22;25777;47.824;18.982;2023-09-30T11:09:15;18.80;99.90
40077;DHT22;25777;47.824;18.982;2023-09-30T11:11:49;18.80;99.90
40077;DHT22;25777;47.824;18.982;2023-09-30T11:14:29;18.80;99.90
40077;DHT22;25777;47.824;18.982;2023-09-30T11:16:57;18.80;99.90
40077;DHT22;25777;47.824;18.982;2023-09-30T11:19:24;18.80;99.90
40077;DHT22;25777;47.824;18.982;2023-09-30T11:21:54;18.80;99.90
40077;DHT22;25777;47.824;18.982;2023-09-30T11:24:21;18.70;99.90
40077;DHT22;25777;47.824;18.982;2023-09-30T11:26:47;18.70;99.90
40077;DHT22;25777;47.824;18.982;2023-09-30T11:29:15;18.70;99.90
40077;DHT22;25777;47.824;18.982;2023-09-30T11:31:46;18.60;99.90
40077;DHT22;25777;47.824;18.982;2023-09-30T11:34:13;18.60;99.90
40077;DHT22;25777;47.824;18.982;2023-09-30T11:36:50;18.60;99.90
40077;DHT22;25777;47.824;18.982;2023-09-30T11:39:27;18.60;99.90
40077;DHT22;25777;47.824;18.982;2023-09-30T11:41:54;18.50;99.90
40077;DHT22;25777;47.824;18.982;2023-09-30T11:44:24;18.50;99.90
40077;DHT22;25777;47.824;18.982;2023-09-30T11:47:01;18.60;99.90
40077;DHT22;25777;47.824;18.982;2023-09-30T11:49:37;18.60;99.90
40077;DHT22;25777;47.824;18.982;2023-09-30T11:52:06;18.60;99.90
40077;DHT22;25777;47.824;18.982;2023-09-30T11:54:33;18.60;99.90
40077;DHT22;25777;47.824;18.982;2023-09-30T11:57:03;18.60;99.90
40077;DHT22;25777;47.824;18.982;2023-09-30T11:59:30;18.60;99.90
40077;DHT22;25777;47.824;18.982;2023-09-30T12:01:56;18.70;99.90
40077;DHT22;25777;47.824;18.982;2023-09-30T12:04:22;18.80;99.90
40077;DHT22;25777;47.824;18.982;2023-09-30T12:06:48;18.90;99.90
40077;DHT22;25777;47.824;18.982;2023-09-30T12:09:15;19.00;99.90
40077;DHT22;25777;47.824;18.982;2023-09-30T12:11:50;19.00;99.90
40077;DHT22;25777;47.824;18.982;2023-09-30T12:14:16;19.10;99.90
40077;DHT22;25777;47.824;18.982;2023-09-30T12:16:43;19.10;99.90
40077;DHT22;25777;47.824;18.982;2023-09-30T12:19:14;19.20;99.90
40077;DHT22;25777;47.824;18.982;2023-09-30T12:21:42;19.20;99.90
40077;DHT22;25777;47.824;18.982;2023-09-30T12:24:08;19.20;99.90
40077;DHT22;25777;47.824;18.982;2023-09-30T12:26:37;19.40;99.90
40077;DHT22;25777;47.824;18.982;2023-09-30T12:29:04;19.50;99.90
40077;DHT22;25777;47.824;18.982;2023-09-30T12:31:31;19.50;99.90
40077;DHT22;25777;47.824;18.982;2023-09-30T12:33:59;19.50;99.90
40077;DHT22;25777;47.824;18.982;2023-09-30T12:36:25;19.70;99.90
40077;DHT22;25777;47.824;18.982;2023-09-30T12:38:51;19.70;99.90
40077;DHT22;25777;47.824;18.982;2023-09-30T12:41:17;19.70;99.90
40077;DHT22;25777;47.824;18.982;2023-09-30T12:43:44;19.70;99.90
40077;DHT22;25777;47.824;18.982;2023-09-30T12:46:11;19.70;99.90
40077;DHT22;25777;47.824;18.982;2023-09-30T12:48:39;19.70;99.90
40077;DHT22;25777;47.824;18.982;2023-09-30T12:51:05;19.70;99.90
40077;DHT22;25777;47.824;18.982;2023-09-30T12:53:33;19.70;99.90
40077;DHT22;25777;47.824;18.982;2023-09-30T12:55:59;19.70;99.90
40077;DHT22;25777;47.824;18.982;2023-09-30T12:58:25;19.70;99.90
40077;DHT22;25777;47.824;18.982;2023-09-30T13:00:55;19.70;99.90
40077;DHT22;25777;47.824;18.982;2023-09-30T13:03:21;19.80;99.90
40077;DHT22;25777;47.824;18.982;2023-09-30T13:05:47;19.80;99.90
40077;DHT22;25777;47.824;18.982;2023-09-30T13:08:16;19.90;99.90
40077;DHT22;25777;47.824;18.982;2023-09-30T13:10:44;20.10;99.90
40077;DHT22;25777;47.824;18.982;2023-09-30T13:13:11;20.20;99.90
40077;DHT22;25777;47.824;18.982;2023-09-30T13:15:38;20.20;99.90
40077;DHT22;25777;47.824;18.982;2023-09-30T13:18:04;20.20;99.90
40077;DHT22;25777;47.824;18.982;2023-09-30T13:20:31;20.20;99.90
40077;DHT22;25777;47.824;18.982;2023-09-30T13:22:57;20.30;99.90
40077;DHT22;25777;47.824;18.982;2023-09-30T13:25:23;20.40;99.90
40077;DHT22;25777;47.824;18.982;2023-09-30T13:27:49;20.50;99.90
40077;DHT22;25777;47.824;18.982;2023-09-30T13:30:15;20.50;99.90
40077;DHT22;25777;47.824;18.982;2023-09-30T13:32:41;20.40;99.90
40077;DHT22;25777;47.824;18.982;2023-09-30T13:35:07;20.40;99.90
40077;DHT22;25777;47.824;18.982;2023-09-30T13:37:33;20.30;99.90
40077;DHT22;25777;47.824;18.982;2023-09-30T13:40:00;20.50;99.90
40077;DHT22;25777;47.824;18.982;2023-09-30T13:42:26;20.60;99.90
40077;DHT22;25777;47.824;18.982;2023-09-30T13:44:52;20.80;99.90
40077;DHT22;25777;47.824;18.982;2023-09-30T13:47:18;20.80;99.90
40077;DHT22;25777;47.824;18.982;2023-09-30T13:49:44;20.80;99.90
40077;DHT22;25777;47.824;18.982;2023-09-30T13:52:11;20.90;99.90
40077;DHT22;25777;47.824;18.982;2023-09-30T13:54:37;20.90;99.90
40077;DHT22;25777;47.824;18.982;2023-09-30T13:57:03;21.00;99.90
40077;DHT22;25777;47.824;18.982;2023-09-30T13:59:29;21.00;99.90
40077;DHT22;25777;47.824;18.982;2023-09-30T14:01:54;21.00;99.90
40077;DHT22;25777;47.824;18.982;2023-09-30T14:04:20;21.00;99.90
40077;DHT22;25777;47.824;18.982;2023-09-30T14:06:46;20.90;99.90
40077;DHT22;25777;47.824;18.982;2023-09-30T14:09:13;20.80;99.90
40077;DHT22;25777;47.824;18.982;2023-09-30T14:11:41;20.90;99.90
40077;DHT22;25777;47.824;18.982;2023-09-30T14:14:07;20.80;99.90
40077;DHT22;25777;47.824;18.982;2023-09-30T14:16:35;20.70;99.90
40077;DHT22;25777;47.824;18.982;2023-09-30T14:19:02;20.70;99.90
40077;DHT22;25777;47.824;18.982;2023-09-30T14:21:29;20.70;99.90
40077;DHT22;25777;47.824;18.982;2023-09-30T14:23:57;20.60;99.90
40077;DHT22;25777;47.824;18.982;2023-09-30T14:26:23;20.70;99.90
40077;DHT22;25777;47.824;18.982;2023-09-30T14:28:50;20.80;99.90
40077;DHT22;25777;47.824;18.982;2023-09-30T14:31:16;20.90;99.90
40077;DHT22;25777;47.824;18.982;2023-09-30T14:33:43;21.00;99.90
40077;DHT22;25777;47.824;18.982;2023-09-30T14:36:09;21.00;99.90
40077;DHT22;25777;47.824;18.982;2023-09-30T14:38:34;21.00;99.90
40077;DHT22;25777;47.824;18.982;2023-09-30T14:41:06;21.00;99.90
40077;DHT22;25777;47.824;18.982;2023-09-30T14:43:33;21.00;99.90
40077;DHT22;25777;47.824;18.982;2023-09-30T14:46:01;21.00;99.90
40077;DHT22;25777;47.824;18.982;2023-09-30T14:48:28;21.00;99.90
40077;DHT22;25777;47.824;18.982;2023-09-30T14:50:53;21.00;99.90
40077;DHT22;25777;47.824;18.982;2023-09-30T14:53:19;21.00;99.90
40077;DHT22;25777;47.824;18.982;2023-09-30T14:55:45;21.00;99.90
40077;DHT22;25777;47.824;18.982;2023-09-30T14:58:11;21.00;99.90
40077;DHT22;25777;47.824;18.982;2023-09-30T15:00:37;21.00;99.90
40077;DHT22;25777;47.824;18.982;2023-09-30T15:03:03;20.90;99.90
40077;DHT22;25777;47.824;18.982;2023-09-30T15:05:31;20.80;99.90
40077;DHT22;25777;47.824;18.982;2023-09-30T15:07:58;20.80;99.90
40077;DHT22;25777;47.824;18.982;2023-09-30T15:10:27;20.70;99.90
40077;DHT22;25777;47.824;18.982;2023-09-30T15:12:52;20.70;99.90
40077;DHT22;25777;47.824;18.982;2023-09-30T15:15:18;20.50;99.90
40077;DHT22;25777;47.824;18.982;2023-09-30T15:17:44;20.40;99.90
40077;DHT22;25777;47.824;18.982;2023-09-30T15:20:10;20.30;99.90
40077;DHT22;25777;47.824;18.982;2023-09-30T15:22:37;20.30;99.90
40077;DHT22;25777;47.824;18.982;2023-09-30T15:25:04;20.10;99.90
40077;DHT22;25777;47.824;18.982;2023-09-30T15:27:30;20.10;99.90
40077;DHT22;25777;47.824;18.982;2023-09-30T15:29:59;20.00;99.90
40077;DHT22;25777;47.824;18.982;2023-09-30T15:32:25;20.00;99.90
40077;DHT22;25777;47.824;18.982;2023-09-30T15:34:50;19.90;99.90
40077;DHT22;25777;47.824;18.982;2023-09-30T15:37:16;19.80;99.90
40077;DHT22;25777;47.824;18.982;2023-09-30T15:39:42;19.90;99.90
40077;DHT22;25777;47.824;18.982;2023-09-30T15:42:09;19.80;99.90